Time;durP1;ratioP1;P1;durP2;ratioP2;P2;SDS_P1;SDS_P2;PMS_P1;PMS_P2;Temp;Humidity;BMP_temperature;BMP_pressure;BME280_temperature;BME280_humidity;BME280_pressure;Samples;Min_cycle;Max_cycle;Signal;HPM_P1;HPM_P2
2021/12/25 00:00:52;;;;;;;3.22;3.00;;;9.20;99.90;;;;;;4994579;28;20195;-64
2021/12/25 00:03:18;;;;;;;3.90;3.60;;;9.10;99.90;;;;;;4993979;28;20213;-64
2021/12/25 00:05:47;;;;;;;4.63;4.23;;;9.10;99.90;;;;;;4994399;28;20402;-64
2021/12/25 00:08:13;;;;;;;4.78;4.25;;;9.10;99.90;;;;;;4993355;28;21004;-64
2021/12/25 00:10:39;;;;;;;5.10;4.60;;;9.20;99.90;;;;;;4994230;28;20183;-63
2021/12/25 00:13:05;;;;;;;5.63;4.40;;;9.20;99.90;;;;;;4993972;28;20836;-63
2021/12/25 00:15:30;;;;;;;3.50;3.23;;;9.20;99.90;;;;;;4994162;28;20258;-63
2021/12/25 00:17:56;;;;;;;8.07;4.17;;;9.20;99.90;;;;;;4993307;28;20702;-64
2021/12/25 00:20:22;;;;;;;4.70;4.20;;;9.30;99.90;;;;;;4994076;28;20211;-63
2021/12/25 00:22:47;;;;;;;5.30;4.70;;;9.30;99.90;;;;;;4993653;28;20183;-62
2021/12/25 00:25:14;;;;;;;4.47;4.17;;;9.30;99.90;;;;;;4994135;28;20174;-63
2021/12/25 00:27:54;;;;;;;5.22;4.20;;;9.30;99.90;;;;;;4994046;28;20610;-63
2021/12/25 00:30:28;;;;;;;5.90;5.32;;;9.30;99.90;;;;;;4994179;28;20201;-63
2021/12/25 00:33:00;;;;;;;4.75;4.38;;;9.30;99.90;;;;;;4993802;28;20712;-64
2021/12/25 00:35:26;;;;;;;4.90;4.28;;;9.30;99.90;;;;;;4994173;28;20187;-63
2021/12/25 00:37:52;;;;;;;5.45;4.95;;;9.30;99.90;;;;;;4993846;28;20195;-63
2021/12/25 00:40:18;;;;;;;5.97;5.23;;;9.30;99.90;;;;;;4993881;28;20195;-65
2021/12/25 00:42:44;;;;;;;4.32;3.92;;;9.20;99.90;;;;;;4993531;28;20247;-62
2021/12/25 00:45:10;;;;;;;5.90;4.50;;;9.30;99.90;;;;;;4993690;28;20198;-64
2021/12/25 00:47:36;;;;;;;4.70;3.80;;;9.20;99.90;;;;;;4993644;28;20450;-63
2021/12/25 00:50:02;;;;;;;7.77;5.43;;;9.20;99.90;;;;;;4992393;28;20186;-63
2021/12/25 00:52:28;;;;;;;6.60;4.50;;;9.20;99.90;;;;;;4993455;28;20758;-63
2021/12/25 00:54:53;;;;;;;4.63;4.23;;;9.10;99.90;;;;;;4993690;28;20167;-64
2021/12/25 00:57:19;;;;;;;6.00;5.00;;;9.10;99.90;;;;;;4993750;28;20335;-63
2021/12/25 00:59:45;;;;;;;7.37;5.47;;;9.10;99.90;;;;;;4993627;28;20218;-63
2021/12/25 01:02:10;;;;;;;5.20;4.63;;;9.20;99.90;;;;;;4993170;28;20203;-64
2021/12/25 01:04:36;;;;;;;5.40;4.83;;;9.10;99.90;;;;;;4993747;28;20172;-62
2021/12/25 01:07:02;;;;;;;4.83;4.40;;;9.20;99.90;;;;;;4992441;28;20661;-64
2021/12/25 01:09:28;;;;;;;5.30;4.90;;;9.20;99.90;;;;;;4993659;28;20168;-63
2021/12/25 01:11:54;;;;;;;7.30;4.93;;;9.20;99.90;;;;;;4993383;28;20174;-64
2021/12/25 01:14:33;;;;;;;5.57;4.90;;;9.20;99.90;;;;;;4993664;28;20179;-64
2021/12/25 01:18:00;;;;;;;4.55;4.15;;;9.20;99.90;;;;;;4993662;28;20585;-63
2021/12/25 01:30:22;;;;;;;5.40;3.95;;;9.10;99.90;;;;;;4997225;28;20541;-63
2021/12/25 01:41:19;;;;;;;4.60;3.03;;;9.00;99.90;;;;;;4996802;28;20241;-62
2021/12/25 01:49:16;;;;;;;7.80;6.03;;;9.00;99.90;;;;;;4997330;28;20182;-62
2021/12/25 01:51:41;;;;;;;5.67;5.10;;;9.00;99.90;;;;;;4996460;28;20190;-65
2021/12/25 01:54:07;;;;;;;4.80;4.40;;;8.90;99.90;;;;;;4996603;28;20634;-62
2021/12/25 01:56:33;;;;;;;4.47;4.00;;;8.80;99.90;;;;;;4996560;28;20200;-63
2021/12/25 01:58:58;;;;;;;5.83;5.33;;;8.80;99.90;;;;;;4996546;28;20182;-63
2021/12/25 02:01:24;;;;;;;5.30;4.50;;;8.80;99.90;;;;;;4996356;28;20213;-63
2021/12/25 02:03:50;;;;;;;5.30;4.80;;;8.70;99.90;;;;;;4996448;28;20250;-63
2021/12/25 02:06:15;;;;;;;6.47;5.33;;;8.70;99.90;;;;;;4996454;28;20194;-63
2021/12/25 02:08:44;;;;;;;5.73;5.23;;;8.70;99.90;;;;;;4996272;28;20171;-63
2021/12/25 02:11:11;;;;;;;5.00;4.57;;;8.70;99.90;;;;;;4996072;28;20617;-63
2021/12/25 02:13:38;;;;;;;7.22;6.18;;;8.60;99.90;;;;;;4996356;28;20171;-63
2021/12/25 02:16:11;;;;;;;4.72;4.22;;;8.60;99.90;;;;;;4996246;28;20168;-63
2021/12/25 02:21:25;;;;;;;6.35;5.78;;;8.60;99.90;;;;;;4995734;28;20201;-62
2021/12/25 02:23:51;;;;;;;5.30;4.80;;;8.60;99.90;;;;;;4996178;28;20171;-63
2021/12/25 02:26:18;;;;;;;7.40;6.75;;;8.60;99.90;;;;;;4995960;28;20195;-64
2021/12/25 02:28:44;;;;;;;7.80;5.45;;;8.50;99.90;;;;;;4994912;28;20171;-63
2021/12/25 02:31:12;;;;;;;7.53;5.05;;;8.50;99.90;;;;;;4994939;28;20186;-65
2021/12/25 02:33:38;;;;;;;5.70;4.50;;;8.50;99.90;;;;;;4995825;28;20668;-64
2021/12/25 02:36:05;;;;;;;7.22;6.25;;;8.40;99.90;;;;;;4995763;28;20175;-63
2021/12/25 02:38:32;;;;;;;5.18;4.68;;;8.40;99.90;;;;;;4994606;28;20745;-63
2021/12/25 02:40:57;;;;;;;7.20;5.15;;;8.40;99.90;;;;;;4994487;28;20298;-63
2021/12/25 02:43:23;;;;;;;4.83;4.23;;;8.40;99.90;;;;;;4995352;28;20305;-63
2021/12/25 02:45:50;;;;;;;6.80;4.93;;;8.40;99.90;;;;;;4995775;28;20185;-65
2021/12/25 02:48:17;;;;;;;7.10;6.03;;;8.40;99.90;;;;;;4995468;28;20431;-62
2021/12/25 02:50:44;;;;;;;7.68;5.82;;;8.40;99.90;;;;;;4995540;28;20841;-62
2021/12/25 02:53:11;;;;;;;5.65;4.82;;;8.40;99.90;;;;;;4993994;28;20179;-64
2021/12/25 02:55:39;;;;;;;8.00;4.45;;;8.30;99.90;;;;;;4995677;28;20170;-64
2021/12/25 02:58:05;;;;;;;6.05;4.85;;;8.30;99.90;;;;;;4995470;28;20194;-63
2021/12/25 03:00:37;;;;;;;4.95;3.83;;;8.40;99.90;;;;;;4995515;28;20546;-64
2021/12/25 03:03:05;;;;;;;8.30;5.43;;;8.40;99.90;;;;;;4995311;28;20253;-64
2021/12/25 03:05:31;;;;;;;6.18;4.30;;;8.40;99.90;;;;;;4994123;28;20179;-64
2021/12/25 03:07:57;;;;;;;5.22;4.72;;;8.40;99.90;;;;;;4994079;28;20191;-63
2021/12/25 03:10:23;;;;;;;5.22;4.30;;;8.50;99.90;;;;;;4995563;28;20175;-63
2021/12/25 03:12:53;;;;;;;7.43;4.93;;;8.50;99.90;;;;;;4994850;28;20238;-63
2021/12/25 03:15:28;;;;;;;7.65;5.00;;;8.40;99.90;;;;;;4995595;28;20199;-63
2021/12/25 03:17:56;;;;;;;5.05;4.53;;;8.40;99.90;;;;;;4995246;28;20270;-63
2021/12/25 03:20:22;;;;;;;7.53;4.63;;;8.40;99.90;;;;;;4995226;28;20642;-64
2021/12/25 03:22:48;;;;;;;4.82;4.40;;;8.30;99.90;;;;;;4994911;28;20168;-63
2021/12/25 03:25:16;;;;;;;8.80;5.57;;;8.30;99.90;;;;;;4993941;28;20506;-63
2021/12/25 03:27:43;;;;;;;5.38;4.47;;;8.30;99.90;;;;;;4993803;28;20433;-63
2021/12/25 03:30:11;;;;;;;6.10;4.85;;;8.30;99.90;;;;;;4993748;28;20167;-62
2021/12/25 03:32:36;;;;;;;7.65;5.10;;;8.30;99.90;;;;;;4994634;28;20537;-63
2021/12/25 03:35:02;;;;;;;5.87;3.90;;;8.30;99.90;;;;;;4994896;28;20167;-62
2021/12/25 03:37:28;;;;;;;4.53;3.95;;;8.30;99.90;;;;;;4994675;28;20179;-62
2021/12/25 03:39:54;;;;;;;7.33;4.63;;;8.30;99.90;;;;;;4994803;28;20194;-62
2021/12/25 03:42:20;;;;;;;5.53;3.93;;;8.20;99.90;;;;;;4994269;28;20427;-63
2021/12/25 03:44:46;;;;;;;3.83;3.53;;;8.20;99.90;;;;;;4994585;28;20174;-63
2021/12/25 03:47:23;;;;;;;8.55;4.68;;;8.20;99.90;;;;;;4994487;28;20229;-63
2021/12/25 03:58:07;;;;;;;4.47;4.07;;;8.20;99.90;;;;;;4994687;28;20305;-62
2021/12/25 04:00:35;;;;;;;4.25;3.85;;;8.20;99.90;;;;;;4994548;28;20760;-62
2021/12/25 04:03:05;;;;;;;4.60;3.97;;;8.20;99.90;;;;;;4993949;28;20258;-62
2021/12/25 04:05:34;;;;;;;5.35;3.80;;;8.30;99.90;;;;;;4994592;28;20164;-62
2021/12/25 04:10:27;;;;;;;5.00;4.07;;;8.30;99.90;;;;;;4994354;28;20172;-62
2021/12/25 04:12:54;;;;;;;4.90;4.20;;;8.30;99.90;;;;;;4994046;28;20179;-62
2021/12/25 04:15:20;;;;;;;6.80;4.95;;;8.30;99.90;;;;;;4994435;28;20218;-62
2021/12/25 04:17:46;;;;;;;6.67;4.00;;;8.40;99.90;;;;;;4994239;28;20258;-63
2021/12/25 04:20:12;;;;;;;2.83;2.60;;;8.40;99.90;;;;;;4999006;28;20235;-62
2021/12/25 04:22:46;;;;;;;4.37;3.77;;;8.40;99.90;;;;;;5006657;28;20409;-62
2021/12/25 04:25:12;;;;;;;4.03;3.13;;;8.40;99.90;;;;;;5006028;28;20437;-62
2021/12/25 04:27:38;;;;;;;3.28;2.97;;;8.40;99.90;;;;;;5003547;28;20562;-61
2021/12/25 04:30:18;;;;;;;2.97;2.78;;;8.50;99.90;;;;;;4994269;28;20564;-63
2021/12/25 04:49:58;;;;;;;5.40;4.28;;;8.50;99.90;;;;;;4994119;28;20671;-64
2021/12/25 05:03:59;;;;;;;3.85;3.55;;;8.50;99.90;;;;;;4997628;28;20216;-62
2021/12/25 05:05:56;;;;;;;5.03;4.25;;;8.50;99.90;;;;;;4983944;28;20263;-63
2021/12/25 05:08:22;;;;;;;4.47;3.57;;;8.40;99.90;;;;;;4997623;28;20179;-62
2021/12/25 05:10:48;;;;;;;3.37;3.03;;;8.40;99.90;;;;;;4997638;28;20451;-63
2021/12/25 05:13:13;;;;;;;4.90;4.50;;;8.40;99.90;;;;;;4997131;28;20284;-63
2021/12/25 05:15:39;;;;;;;4.00;3.67;;;8.40;99.90;;;;;;4997764;28;20203;-62
2021/12/25 05:18:06;;;;;;;3.70;3.40;;;8.40;99.90;;;;;;4997238;28;20428;-64
2021/12/25 05:20:32;;;;;;;4.82;4.18;;;8.40;99.90;;;;;;4996031;28;20214;-62
2021/12/25 05:22:57;;;;;;;3.72;3.42;;;8.30;99.90;;;;;;4996987;28;20172;-62
2021/12/25 05:25:23;;;;;;;3.73;3.37;;;8.30;99.90;;;;;;4997324;28;20214;-62
2021/12/25 05:27:50;;;;;;;5.93;3.07;;;8.40;99.90;;;;;;4997336;28;20202;-63
2021/12/25 05:30:17;;;;;;;5.35;4.75;;;8.40;99.90;;;;;;4997283;28;20414;-64
2021/12/25 05:32:43;;;;;;;4.82;4.32;;;8.40;99.90;;;;;;4996718;28;20174;-64
2021/12/25 05:35:09;;;;;;;3.10;2.87;;;8.40;99.90;;;;;;4995837;28;20166;-62
2021/12/25 05:37:35;;;;;;;3.13;2.87;;;8.40;99.90;;;;;;4997008;28;20782;-63
2021/12/25 05:40:01;;;;;;;3.33;2.53;;;8.40;99.90;;;;;;4996985;28;20170;-63
2021/12/25 05:42:27;;;;;;;3.28;3.03;;;8.50;99.90;;;;;;4996543;28;20182;-63
2021/12/25 05:44:53;;;;;;;3.40;3.10;;;8.40;99.90;;;;;;4997070;28;20194;-64
2021/12/25 05:47:19;;;;;;;4.47;2.57;;;8.40;99.90;;;;;;4996735;28;20203;-63
2021/12/25 05:49:44;;;;;;;3.30;3.03;;;8.40;99.90;;;;;;4996628;28;20167;-63
2021/12/25 05:52:10;;;;;;;3.33;2.90;;;8.40;99.90;;;;;;4996657;28;20222;-62
2021/12/25 05:54:36;;;;;;;2.70;2.50;;;8.50;99.90;;;;;;4996859;28;20185;-63
2021/12/25 05:57:02;;;;;;;3.60;3.30;;;8.50;99.90;;;;;;4996437;28;20199;-63
2021/12/25 05:59:28;;;;;;;2.80;2.55;;;8.50;99.90;;;;;;4996650;28;20180;-63
2021/12/25 06:01:53;;;;;;;3.27;2.97;;;8.50;99.90;;;;;;4996211;28;20198;-62
2021/12/25 06:04:19;;;;;;;3.33;3.03;;;8.50;99.90;;;;;;4996680;28;20179;-63
2021/12/25 06:06:45;;;;;;;3.50;3.00;;;8.50;99.90;;;;;;4995368;28;20695;-62
2021/12/25 06:09:10;;;;;;;2.60;2.40;;;8.50;99.90;;;;;;4996582;28;20194;-63
2021/12/25 06:11:37;;;;;;;2.43;2.30;;;8.50;99.90;;;;;;4995937;28;20246;-62
2021/12/25 06:14:16;;;;;;;3.13;2.92;;;8.60;99.90;;;;;;4996436;28;20202;-62
2021/12/25 06:16:42;;;;;;;2.40;2.20;;;8.50;99.90;;;;;;4996283;28;20277;-64
2021/12/25 06:19:08;;;;;;;3.20;2.90;;;8.50;99.90;;;;;;4996531;28;20203;-62
2021/12/25 06:21:35;;;;;;;3.00;2.80;;;8.50;99.90;;;;;;4996046;28;20427;-63
2021/12/25 06:24:02;;;;;;;4.70;3.00;;;8.50;99.90;;;;;;4996248;28;20228;-63
2021/12/25 06:26:28;;;;;;;4.18;2.83;;;8.50;99.90;;;;;;4996378;28;20183;-62
2021/12/25 06:28:55;;;;;;;3.50;3.20;;;8.50;99.90;;;;;;4996146;28;20179;-63
2021/12/25 06:31:22;;;;;;;4.55;3.45;;;8.50;99.90;;;;;;4995678;28;20609;-63
2021/12/25 06:33:47;;;;;;;2.47;2.28;;;8.50;99.90;;;;;;4996208;28;20652;-63
2021/12/25 06:36:13;;;;;;;2.90;2.70;;;8.50;99.90;;;;;;4994723;28;20199;-63
2021/12/25 06:38:41;;;;;;;3.43;2.67;;;8.40;99.90;;;;;;4994805;28;20418;-63
2021/12/25 06:41:07;;;;;;;2.90;2.70;;;8.50;99.90;;;;;;4995527;28;20450;-63
2021/12/25 06:43:34;;;;;;;2.75;2.55;;;8.50;99.90;;;;;;4995946;28;20207;-63
2021/12/25 06:45:59;;;;;;;2.97;2.40;;;8.50;99.90;;;;;;4996031;28;20168;-63
2021/12/25 06:48:26;;;;;;;2.50;2.30;;;8.50;99.90;;;;;;4995946;28;20187;-63
2021/12/25 06:50:53;;;;;;;4.95;2.92;;;8.60;99.90;;;;;;4995887;28;20210;-63
2021/12/25 06:53:18;;;;;;;4.28;2.90;;;8.60;99.90;;;;;;4995567;28;20258;-62
2021/12/25 06:55:44;;;;;;;3.20;2.43;;;8.60;99.90;;;;;;4995877;28;20209;-63
2021/12/25 06:58:10;;;;;;;2.73;2.53;;;8.60;99.90;;;;;;4995540;28;20199;-63
2021/12/25 07:00:35;;;;;;;3.50;2.90;;;8.60;99.90;;;;;;4995432;28;20199;-63
2021/12/25 07:03:01;;;;;;;2.43;2.23;;;8.60;99.90;;;;;;4995243;28;20414;-64
2021/12/25 07:05:27;;;;;;;3.00;2.63;;;8.60;99.90;;;;;;4995630;28;20175;-63
2021/12/25 07:07:52;;;;;;;3.27;3.00;;;8.60;99.90;;;;;;4995485;28;20658;-64
2021/12/25 07:10:19;;;;;;;3.40;3.10;;;8.60;99.90;;;;;;4995377;28;20305;-63
2021/12/25 07:12:47;;;;;;;2.53;2.33;;;8.70;99.90;;;;;;4995013;28;20422;-63
2021/12/25 07:15:13;;;;;;;3.38;3.13;;;8.60;99.90;;;;;;4995391;28;20545;-63
2021/12/25 07:17:39;;;;;;;4.57;3.35;;;8.60;99.90;;;;;;4994930;28;20195;-63
2021/12/25 07:20:05;;;;;;;3.38;3.08;;;8.60;99.90;;;;;;4995457;28;20168;-62
2021/12/25 07:22:31;;;;;;;3.20;2.90;;;8.70;99.90;;;;;;4994965;28;20186;-63
2021/12/25 07:24:57;;;;;;;3.90;3.60;;;8.60;99.90;;;;;;4994980;28;20461;-63
2021/12/25 07:27:22;;;;;;;5.53;5.03;;;8.70;99.90;;;;;;4994929;28;20756;-63
2021/12/25 07:29:48;;;;;;;4.50;3.97;;;8.70;99.90;;;;;;4994914;28;20199;-63
2021/12/25 07:32:14;;;;;;;3.73;3.00;;;8.70;99.90;;;;;;4994745;28;20175;-63
2021/12/25 07:34:40;;;;;;;4.67;3.83;;;8.70;99.90;;;;;;4994930;28;20774;-63
2021/12/25 07:37:06;;;;;;;3.93;3.63;;;8.80;99.90;;;;;;4994927;28;20195;-63
2021/12/25 07:39:32;;;;;;;4.50;4.10;;;8.80;99.90;;;;;;4995085;28;20838;-63
2021/12/25 07:41:58;;;;;;;2.72;2.53;;;8.70;99.90;;;;;;4994274;28;20207;-63
2021/12/25 07:44:24;;;;;;;6.25;4.70;;;8.80;99.90;;;;;;4994940;28;20206;-62
2021/12/25 07:46:51;;;;;;;4.07;3.50;;;8.80;99.90;;;;;;4993381;28;20247;-63
2021/12/25 07:49:19;;;;;;;5.85;4.55;;;8.70;99.90;;;;;;4994880;28;20761;-62
2021/12/25 07:51:46;;;;;;;5.60;4.43;;;8.80;99.90;;;;;;4994471;28;20262;-62
2021/12/25 07:54:12;;;;;;;3.70;3.40;;;8.80;99.90;;;;;;4994737;28;20630;-63
2021/12/25 07:56:38;;;;;;;3.45;2.80;;;8.80;99.90;;;;;;4994775;28;20622;-63
2021/12/25 07:59:05;;;;;;;5.28;3.15;;;8.80;99.90;;;;;;4995129;28;20183;-63
2021/12/25 08:01:34;;;;;;;4.00;3.72;;;8.80;99.90;;;;;;4994242;28;20203;-63
2021/12/25 08:04:00;;;;;;;4.25;2.85;;;8.80;99.90;;;;;;4994427;28;20175;-63
2021/12/25 08:06:26;;;;;;;3.20;2.90;;;8.80;99.90;;;;;;4993138;28;20191;-63
2021/12/25 08:08:55;;;;;;;3.17;2.77;;;8.80;99.90;;;;;;4993066;28;20178;-63
2021/12/25 08:11:22;;;;;;;2.78;2.58;;;8.90;99.90;;;;;;4994201;28;20784;-63
2021/12/25 08:13:48;;;;;;;4.00;3.30;;;8.90;99.90;;;;;;4994451;28;20254;-62
2021/12/25 08:16:14;;;;;;;4.50;3.90;;;8.90;99.90;;;;;;4993889;28;20625;-62
2021/12/25 08:18:39;;;;;;;3.83;3.30;;;8.90;99.90;;;;;;4993997;28;20286;-62
2021/12/25 08:21:06;;;;;;;4.73;4.00;;;8.90;99.90;;;;;;4993625;28;20203;-66
2021/12/25 08:23:35;;;;;;;3.83;3.00;;;8.90;99.90;;;;;;4993895;28;20607;-64
2021/12/25 08:26:03;;;;;;;6.55;4.13;;;8.90;99.90;;;;;;4994026;28;20250;-62
2021/12/25 08:28:29;;;;;;;3.25;2.97;;;8.90;99.90;;;;;;4993836;28;20172;-62
2021/12/25 08:30:54;;;;;;;5.47;4.40;;;8.90;99.90;;;;;;4993334;28;20171;-62
2021/12/25 08:33:20;;;;;;;4.53;3.60;;;8.90;99.90;;;;;;4993610;28;20175;-62
2021/12/25 08:35:46;;;;;;;4.87;4.40;;;9.00;99.90;;;;;;4993921;28;20250;-62
2021/12/25 08:38:12;;;;;;;3.55;3.25;;;9.00;99.90;;;;;;4993709;28;20642;-62
2021/12/25 08:40:39;;;;;;;3.80;3.40;;;9.00;99.90;;;;;;4993820;28;20279;-63
2021/12/25 08:43:05;;;;;;;3.67;3.22;;;9.10;99.90;;;;;;4993722;28;20271;-62
2021/12/25 08:48:15;;;;;;;3.88;3.15;;;9.20;99.90;;;;;;4993825;28;20199;-62
2021/12/25 08:50:45;;;;;;;5.43;3.58;;;9.20;99.90;;;;;;4993824;28;20178;-63
2021/12/25 08:53:11;;;;;;;3.05;2.85;;;9.20;99.90;;;;;;4993430;28;20171;-62
2021/12/25 08:55:37;;;;;;;7.80;2.30;;;9.30;99.90;;;;;;4993810;28;20198;-62
2021/12/25 08:58:02;;;;;;;4.03;3.20;;;9.30;99.90;;;;;;4993880;28;20191;-62
2021/12/25 09:00:28;;;;;;;2.50;2.30;;;9.30;99.90;;;;;;4993816;28;20191;-63
2021/12/25 09:02:54;;;;;;;2.70;2.50;;;9.40;99.90;;;;;;4993561;28;20534;-64
2021/12/25 09:05:20;;;;;;;3.23;2.77;;;9.40;99.90;;;;;;4994318;28;20403;-62
2021/12/25 09:07:47;;;;;;;5.78;3.42;;;9.50;99.90;;;;;;4994098;28;20187;-62
2021/12/25 09:10:12;;;;;;;2.42;2.30;;;9.60;99.90;;;;;;4993589;28;20196;-62
2021/12/25 09:12:41;;;;;;;2.83;2.47;;;9.60;99.90;;;;;;4991969;28;20299;-64
2021/12/25 09:15:09;;;;;;;7.53;4.15;;;9.60;99.90;;;;;;4994123;28;20489;-63
2021/12/25 09:17:34;;;;;;;4.60;3.05;;;9.70;99.90;;;;;;4993363;28;20188;-62
2021/12/25 09:20:00;;;;;;;8.07;4.87;;;9.70;99.90;;;;;;4993563;28;20190;-63
2021/12/25 09:22:25;;;;;;;8.00;5.07;;;9.70;99.90;;;;;;4993079;28;20685;-64
2021/12/25 09:24:51;;;;;;;10.10;4.07;;;9.70;99.90;;;;;;4993701;28;20182;-63
2021/12/25 09:27:17;;;;;;;3.90;3.00;;;9.80;99.90;;;;;;4993418;28;20192;-63
2021/12/25 09:29:43;;;;;;;3.50;3.20;;;9.80;99.90;;;;;;4993657;28;20204;-62
2021/12/25 09:32:08;;;;;;;4.70;3.40;;;9.80;99.90;;;;;;4993064;28;20175;-63
2021/12/25 09:34:34;;;;;;;3.53;2.70;;;9.80;99.90;;;;;;4992099;28;20646;-63
2021/12/25 09:37:00;;;;;;;4.10;3.77;;;9.90;99.90;;;;;;4993556;28;20541;-63
2021/12/25 09:39:26;;;;;;;5.70;3.27;;;9.90;99.90;;;;;;4993475;28;20226;-63
2021/12/25 09:41:51;;;;;;;3.10;2.77;;;9.90;99.90;;;;;;4995567;28;20457;-62
2021/12/25 09:44:17;;;;;;;3.43;3.13;;;9.90;99.90;;;;;;4996842;28;20171;-62
2021/12/25 09:46:43;;;;;;;2.47;1.93;;;9.90;99.90;;;;;;4996706;28;20561;-62
2021/12/25 09:49:10;;;;;;;2.93;2.60;;;9.90;99.90;;;;;;4996774;28;20407;-62
2021/12/25 09:51:36;;;;;;;2.90;2.55;;;10.00;99.90;;;;;;4996374;28;20539;-62
2021/12/25 09:54:07;;;;;;;3.50;2.03;;;10.00;99.90;;;;;;4996623;28;20174;-62
2021/12/25 09:56:34;;;;;;;2.45;2.25;;;10.00;99.90;;;;;;4996703;28;20235;-63
2021/12/25 09:59:00;;;;;;;2.40;2.20;;;10.10;99.90;;;;;;4996523;28;20263;-64
2021/12/25 10:01:48;;;;;;;6.13;4.23;;;10.10;99.90;;;;;;4996022;28;20286;-62
2021/12/25 10:04:42;;;;;;;2.60;2.40;;;10.10;99.90;;;;;;4996486;28;20446;-63
2021/12/25 10:07:19;;;;;;;4.47;2.83;;;10.10;99.90;;;;;;4996442;28;20191;-64
2021/12/25 10:10:10;;;;;;;2.60;2.40;;;10.10;99.90;;;;;;4996396;28;20167;-63
2021/12/25 10:12:43;;;;;;;2.67;2.15;;;10.00;99.90;;;;;;4996163;28;20514;-64
2021/12/25 10:15:12;;;;;;;3.03;1.70;;;10.00;99.90;;;;;;4996424;28;20504;-63
2021/12/25 10:17:51;;;;;;;2.75;2.55;;;10.00;99.90;;;;;;4996299;28;20207;-63
2021/12/25 10:20:23;;;;;;;1.98;1.88;;;10.10;99.90;;;;;;4996255;28;20673;-63
2021/12/25 10:23:02;;;;;;;3.42;2.00;;;10.20;99.90;;;;;;4995896;28;20164;-63
2021/12/25 10:25:35;;;;;;;2.00;1.90;;;10.20;99.90;;;;;;4996185;28;20258;-63
2021/12/25 10:28:06;;;;;;;3.72;3.42;;;10.30;99.90;;;;;;4996164;28;20199;-64
2021/12/25 10:30:43;;;;;;;1.92;1.77;;;10.50;99.90;;;;;;4996169;28;20175;-63
2021/12/25 10:33:26;;;;;;;3.88;2.28;;;10.60;99.90;;;;;;4995698;28;20175;-63
2021/12/25 10:35:52;;;;;;;5.25;3.17;;;10.80;99.90;;;;;;4996006;28;20250;-64
2021/12/25 10:38:17;;;;;;;2.60;2.40;;;10.90;99.90;;;;;;4996977;28;20341;-62
2021/12/25 10:40:43;;;;;;;2.07;1.97;;;11.00;99.90;;;;;;4996049;28;20439;-63
2021/12/25 10:43:20;;;;;;;2.70;1.90;;;11.00;99.90;;;;;;4995454;28;20184;-63
2021/12/25 10:46:00;;;;;;;2.03;1.77;;;11.10;99.90;;;;;;4995795;28;20398;-63
2021/12/25 10:48:28;;;;;;;1.20;1.20;;;11.10;99.90;;;;;;4995831;28;20183;-63
2021/12/25 10:50:54;;;;;;;2.50;2.30;;;11.20;99.90;;;;;;4995958;28;20422;-63
2021/12/25 10:53:34;;;;;;;1.50;1.40;;;11.10;99.90;;;;;;4994473;28;20493;-64
2021/12/25 10:56:15;;;;;;;1.53;1.43;;;11.10;99.90;;;;;;4995719;28;20235;-63
2021/12/25 10:58:42;;;;;;;2.27;1.77;;;11.20;99.90;;;;;;4995607;28;20811;-64
2021/12/25 11:01:10;;;;;;;2.23;1.40;;;11.10;99.90;;;;;;4995125;28;20592;-63
2021/12/25 11:03:39;;;;;;;4.80;1.77;;;11.10;99.90;;;;;;4995599;28;20400;-64
2021/12/25 11:06:17;;;;;;;1.57;1.10;;;11.10;99.90;;;;;;4995456;28;20180;-63
2021/12/25 11:08:44;;;;;;;1.33;1.20;;;11.10;99.90;;;;;;4994054;28;20927;-64
2021/12/25 11:11:16;;;;;;;1.33;1.03;;;11.10;99.90;;;;;;4993699;28;20428;-65
2021/12/25 11:13:43;;;;;;;1.23;0.97;;;11.10;99.90;;;;;;4995319;28;20435;-65
2021/12/25 11:16:12;;;;;;;1.63;1.57;;;11.10;99.90;;;;;;4995292;28;20436;-64
2021/12/25 11:19:04;;;;;;;1.73;1.27;;;11.10;99.90;;;;;;4995351;28;20937;-64
2021/12/25 11:21:33;;;;;;;1.05;1.05;;;11.10;99.90;;;;;;4994920;28;20505;-64
2021/12/25 11:24:08;;;;;;;1.15;1.05;;;11.20;99.90;;;;;;4995174;28;20163;-63
2021/12/25 11:26:35;;;;;;;1.13;1.03;;;11.20;99.90;;;;;;4994903;28;20274;-62
2021/12/25 11:29:02;;;;;;;2.70;1.33;;;11.20;99.90;;;;;;4995032;28;20422;-64
2021/12/25 11:31:30;;;;;;;0.87;0.87;;;11.20;99.90;;;;;;4994636;28;20390;-63
2021/12/25 11:33:56;;;;;;;1.10;1.10;;;11.30;99.90;;;;;;4994772;28;20400;-64
2021/12/25 11:36:21;;;;;;;1.00;1.00;;;11.30;99.90;;;;;;4994608;28;20435;-64
2021/12/25 11:38:49;;;;;;;1.50;1.40;;;11.30;99.90;;;;;;4994921;28;20167;-63
2021/12/25 11:41:16;;;;;;;1.40;1.23;;;11.30;99.90;;;;;;4994486;28;20207;-64
2021/12/25 11:43:45;;;;;;;1.13;0.90;;;11.40;99.90;;;;;;4993615;28;20510;-63
2021/12/25 11:46:12;;;;;;;2.10;1.40;;;11.40;99.90;;;;;;4994580;28;20893;-64
2021/12/25 11:48:39;;;;;;;1.00;1.00;;;11.40;99.90;;;;;;4994843;28;20407;-63
2021/12/25 11:51:06;;;;;;;2.77;1.70;;;11.50;99.90;;;;;;4994547;28;20844;-63
2021/12/25 11:54:04;;;;;;;1.20;1.20;;;11.50;99.90;;;;;;4994613;28;20416;-63
2021/12/25 11:56:36;;;;;;;2.60;1.40;;;11.50;99.90;;;;;;4994299;28;20442;-63
2021/12/25 11:59:14;;;;;;;1.20;1.10;;;11.50;99.90;;;;;;4994491;28;20462;-64
2021/12/25 12:01:49;;;;;;;0.80;0.80;;;11.40;99.90;;;;;;4995388;28;20451;-63
2021/12/25 12:04:16;;;;;;;2.30;1.63;;;11.40;99.90;;;;;;4995025;28;20426;-64
2021/12/25 12:06:47;;;;;;;1.30;1.10;;;11.50;99.90;;;;;;4994514;28;20407;-63
2021/12/25 12:09:15;;;;;;;1.58;1.48;;;11.40;99.90;;;;;;4995307;28;20727;-63
2021/12/25 12:11:47;;;;;;;1.40;1.30;;;11.30;99.90;;;;;;4993179;28;20524;-63
2021/12/25 12:14:16;;;;;;;1.17;1.00;;;11.30;99.90;;;;;;4995737;28;20441;-67
2021/12/25 12:16:53;;;;;;;9.43;1.30;;;11.30;99.90;;;;;;4996043;28;20502;-63
2021/12/25 12:19:36;;;;;;;1.40;1.30;;;11.30;99.90;;;;;;4996917;28;20186;-63
2021/12/25 12:22:49;;;;;;;1.35;1.25;;;11.20;99.90;;;;;;5000958;28;20267;-63
2021/12/25 12:25:19;;;;;;;1.05;0.95;;;11.10;99.90;;;;;;5000958;28;20180;-63
2021/12/25 12:27:53;;;;;;;1.90;1.20;;;11.10;99.90;;;;;;4999616;28;20200;-63
2021/12/25 12:30:31;;;;;;;1.65;1.55;;;11.00;99.90;;;;;;4994956;28;20191;-63
2021/12/25 12:32:58;;;;;;;1.55;1.40;;;11.00;99.90;;;;;;4994842;28;20537;-64
2021/12/25 12:35:31;;;;;;;1.02;1.02;;;10.90;99.90;;;;;;4994102;28;20195;-64
2021/12/25 12:38:28;;;;;;;1.45;1.40;;;10.90;99.90;;;;;;4994167;28;20191;-63
2021/12/25 12:41:19;;;;;;;1.95;1.40;;;10.90;99.90;;;;;;4994011;28;20553;-63
2021/12/25 12:44:03;;;;;;;1.27;1.17;;;10.80;99.90;;;;;;4985921;28;20281;-64
2021/12/25 12:46:48;;;;;;;1.70;1.40;;;10.80;99.90;;;;;;4993748;28;20204;-63
2021/12/25 12:49:52;;;;;;;1.17;1.13;;;10.70;99.90;;;;;;4994262;28;20171;-64
2021/12/25 12:52:40;;;;;;;2.60;2.00;;;10.60;99.90;;;;;;4993422;28;20202;-64
2021/12/25 12:55:10;;;;;;;1.23;1.13;;;10.50;99.90;;;;;;4993792;28;20176;-64
2021/12/25 12:57:38;;;;;;;1.30;1.20;;;10.50;99.90;;;;;;4993898;28;20192;-63
2021/12/25 13:00:27;;;;;;;2.17;1.80;;;10.50;99.90;;;;;;4993755;28;20499;-64
2021/12/25 13:02:55;;;;;;;1.67;1.42;;;10.50;99.90;;;;;;4993517;28;20213;-64
2021/12/25 13:05:37;;;;;;;1.63;1.52;;;10.40;99.90;;;;;;4993795;28;20160;-64
2021/12/25 13:08:21;;;;;;;1.60;1.50;;;10.50;99.90;;;;;;4993812;28;20195;-63
2021/12/25 13:10:52;;;;;;;2.53;2.33;;;10.40;99.90;;;;;;4993776;28;20279;-63
2021/12/25 13:13:53;;;;;;;1.42;1.33;;;10.40;99.90;;;;;;4993224;28;20155;-64
2021/12/25 13:16:23;;;;;;;2.00;1.90;;;10.40;99.90;;;;;;4991639;28;20273;-64
2021/12/25 13:18:53;;;;;;;2.00;1.70;;;10.40;99.90;;;;;;4997603;28;20171;-64
2021/12/25 13:21:24;;;;;;;3.90;2.83;;;10.40;99.90;;;;;;4996893;28;20270;-65
2021/12/25 13:23:56;;;;;;;2.22;1.98;;;10.30;99.90;;;;;;4997781;28;20168;-63
2021/12/25 13:26:35;;;;;;;1.15;1.15;;;10.30;99.90;;;;;;4997263;28;20525;-64
2021/12/25 13:29:14;;;;;;;1.30;1.20;;;10.30;99.90;;;;;;4997371;28;20195;-64
2021/12/25 13:31:42;;;;;;;1.70;1.60;;;10.30;99.90;;;;;;4996825;28;20530;-63
2021/12/25 13:34:18;;;;;;;2.75;2.55;;;10.20;99.90;;;;;;4995902;28;20278;-63
2021/12/25 13:36:54;;;;;;;2.78;1.50;;;10.20;99.90;;;;;;4995619;28;20199;-63
2021/12/25 13:39:26;;;;;;;3.20;2.22;;;10.20;99.90;;;;;;4996947;28;20167;-64
2021/12/25 13:42:05;;;;;;;4.60;1.90;;;10.10;99.90;;;;;;4996379;28;20195;-64
2021/12/25 13:44:35;;;;;;;2.60;2.17;;;10.10;99.90;;;;;;4996977;28;20170;-65
2021/12/25 13:47:04;;;;;;;1.40;1.27;;;10.10;99.90;;;;;;4996795;28;20601;-65
2021/12/25 13:49:43;;;;;;;2.15;2.05;;;10.10;99.90;;;;;;4997076;28;20214;-64
2021/12/25 13:52:38;;;;;;;4.20;2.08;;;10.00;99.90;;;;;;4996185;28;20178;-65
2021/12/25 13:55:11;;;;;;;2.45;2.15;;;10.00;99.90;;;;;;4996660;28;20234;-64
2021/12/25 13:57:50;;;;;;;2.53;2.33;;;10.10;99.90;;;;;;4997173;28;20227;-63
2021/12/25 14:00:27;;;;;;;2.45;1.55;;;10.10;99.90;;;;;;4996584;28;20258;-63
2021/12/25 14:02:57;;;;;;;2.60;1.48;;;10.00;99.90;;;;;;4996144;28;20164;-64
2021/12/25 14:05:26;;;;;;;2.10;2.00;;;10.10;99.90;;;;;;4995335;28;20190;-64
2021/12/25 14:07:52;;;;;;;3.83;2.00;;;10.00;99.90;;;;;;4996336;28;20198;-64
2021/12/25 14:10:25;;;;;;;2.17;1.87;;;10.00;99.90;;;;;;4996373;28;20172;-64
2021/12/25 14:12:55;;;;;;;2.95;2.65;;;10.00;99.90;;;;;;4996220;28;20186;-63